sensor_id;sensor_type;location;lat;lon;timestamp;P1;durP1;ratioP1;P2;durP2;ratioP2
325;SDS011;150;52.352;14.058;2023-04-01T00:03:49;3.00;;;1.77;;
325;SDS011;150;52.352;14.058;2023-04-01T00:12:43;1.88;;;1.50;;
325;SDS011;150;52.352;14.058;2023-04-01T00:18:21;2.78;;;1.77;;
325;SDS011;150;52.352;14.058;2023-04-01T00:20:59;3.58;;;1.90;;
325;SDS011;150;52.352;14.058;2023-04-01T00:23:38;4.90;;;1.77;;
325;SDS011;150;52.352;14.058;2023-04-01T00:29:11;2.60;;;1.80;;
325;SDS011;150;52.352;14.058;2023-04-01T00:31:37;2.20;;;1.42;;
325;SDS011;150;52.352;14.058;2023-04-01T00:34:14;2.40;;;1.55;;
325;SDS011;150;52.352;14.058;2023-04-01T00:36:45;4.10;;;1.70;;
325;SDS011;150;52.352;14.058;2023-04-01T00:39:15;2.78;;;1.60;;
325;SDS011;150;52.352;14.058;2023-04-01T00:41:50;3.50;;;2.30;;
325;SDS011;150;52.352;14.058;2023-04-01T00:44:19;2.75;;;1.67;;
325;SDS011;150;52.352;14.058;2023-04-01T00:47:03;1.60;;;1.10;;
325;SDS011;150;52.352;14.058;2023-04-01T00:49:36;2.40;;;1.17;;
325;SDS011;150;52.352;14.058;2023-04-01T00:52:31;2.22;;;1.70;;
325;SDS011;150;52.352;14.058;2023-04-01T00:55:07;2.40;;;1.85;;
325;SDS011;150;52.352;14.058;2023-04-01T00:57:45;3.50;;;1.90;;
325;SDS011;150;52.352;14.058;2023-04-01T01:00:14;2.10;;;1.60;;
325;SDS011;150;52.352;14.058;2023-04-01T01:02:52;7.75;;;5.63;;
325;SDS011;150;52.352;14.058;2023-04-01T01:05:33;10.65;;;8.23;;
325;SDS011;150;52.352;14.058;2023-04-01T01:08:13;3.63;;;2.80;;
325;SDS011;150;52.352;14.058;2023-04-01T01:11:28;2.75;;;1.77;;
325;SDS011;150;52.352;14.058;2023-04-01T01:14:56;2.83;;;2.00;;
325;SDS011;150;52.352;14.058;2023-04-01T01:17:59;2.00;;;1.60;;
325;SDS011;150;52.352;14.058;2023-04-01T01:31:19;2.40;;;1.93;;
325;SDS011;150;52.352;14.058;2023-04-01T01:37:16;4.70;;;2.50;;
325;SDS011;150;52.352;14.058;2023-04-01T01:39:47;5.13;;;2.70;;
325;SDS011;150;52.352;14.058;2023-04-01T01:42:16;4.15;;;2.60;;
325;SDS011;150;52.352;14.058;2023-04-01T01:44:45;4.90;;;2.70;;
325;SDS011;150;52.352;14.058;2023-04-01T01:47:14;4.90;;;2.70;;
325;SDS011;150;52.352;14.058;2023-04-01T01:49:42;3.30;;;2.70;;
325;SDS011;150;52.352;14.058;2023-04-01T01:52:11;4.65;;;2.30;;
325;SDS011;150;52.352;14.058;2023-04-01T01:54:47;3.65;;;2.78;;
325;SDS011;150;52.352;14.058;2023-04-01T01:57:14;3.50;;;2.95;;
325;SDS011;150;52.352;14.058;2023-04-01T01:59:43;3.97;;;2.75;;
325;SDS011;150;52.352;14.058;2023-04-01T02:02:12;3.38;;;2.60;;
325;SDS011;150;52.352;14.058;2023-04-01T02:04:41;4.20;;;2.90;;
325;SDS011;150;52.352;14.058;2023-04-01T02:07:12;2.67;;;2.22;;
325;SDS011;150;52.352;14.058;2023-04-01T02:09:42;5.30;;;2.77;;
325;SDS011;150;52.352;14.058;2023-04-01T02:12:12;4.88;;;2.78;;
325;SDS011;150;52.352;14.058;2023-04-01T02:14:43;3.20;;;2.50;;
325;SDS011;150;52.352;14.058;2023-04-01T02:17:16;3.10;;;2.50;;
325;SDS011;150;52.352;14.058;2023-04-01T02:19:46;5.50;;;3.45;;
325;SDS011;150;52.352;14.058;2023-04-01T02:22:16;2.72;;;1.95;;
325;SDS011;150;52.352;14.058;2023-04-01T02:24:46;2.65;;;2.25;;
325;SDS011;150;52.352;14.058;2023-04-01T02:27:16;4.30;;;2.60;;
325;SDS011;150;52.352;14.058;2023-04-01T02:29:43;3.67;;;2.40;;
325;SDS011;150;52.352;14.058;2023-04-01T02:32:10;2.85;;;2.13;;
325;SDS011;150;52.352;14.058;2023-04-01T02:34:38;3.50;;;1.70;;
325;SDS011;150;52.352;14.058;2023-04-01T02:37:06;4.45;;;2.65;;
325;SDS011;150;52.352;14.058;2023-04-01T02:39:33;3.15;;;2.20;;
325;SDS011;150;52.352;14.058;2023-04-01T02:41:59;5.20;;;2.60;;
325;SDS011;150;52.352;14.058;2023-04-01T02:44:27;3.00;;;2.40;;
325;SDS011;150;52.352;14.058;2023-04-01T02:46:54;2.58;;;1.92;;
325;SDS011;150;52.352;14.058;2023-04-01T02:49:21;3.20;;;2.30;;
325;SDS011;150;52.352;14.058;2023-04-01T02:51:47;2.40;;;2.20;;
325;SDS011;150;52.352;14.058;2023-04-01T02:54:14;3.60;;;2.40;;
325;SDS011;150;52.352;14.058;2023-04-01T02:56:41;3.58;;;2.50;;
325;SDS011;150;52.352;14.058;2023-04-01T02:59:07;3.60;;;2.17;;
325;SDS011;150;52.352;14.058;2023-04-01T03:01:37;4.80;;;2.63;;
325;SDS011;150;52.352;14.058;2023-04-01T03:04:04;2.95;;;2.30;;
325;SDS011;150;52.352;14.058;2023-04-01T03:06:30;3.70;;;3.10;;
325;SDS011;150;52.352;14.058;2023-04-01T03:08:57;4.90;;;2.88;;
325;SDS011;150;52.352;14.058;2023-04-01T03:11:24;5.70;;;3.20;;
325;SDS011;150;52.352;14.058;2023-04-01T03:13:51;2.50;;;2.10;;
325;SDS011;150;52.352;14.058;2023-04-01T03:16:18;4.22;;;2.47;;
325;SDS011;150;52.352;14.058;2023-04-01T03:18:46;5.78;;;2.70;;
325;SDS011;150;52.352;14.058;2023-04-01T03:23:42;4.40;;;2.70;;
325;SDS011;150;52.352;14.058;2023-04-01T03:26:08;4.20;;;3.30;;
325;SDS011;150;52.352;14.058;2023-04-01T03:28:35;3.75;;;2.50;;
325;SDS011;150;52.352;14.058;2023-04-01T03:31:02;3.80;;;2.92;;
325;SDS011;150;52.352;14.058;2023-04-01T03:33:29;3.78;;;2.55;;
325;SDS011;150;52.352;14.058;2023-04-01T03:35:57;6.25;;;2.78;;
325;SDS011;150;52.352;14.058;2023-04-01T03:38:24;4.03;;;2.70;;
325;SDS011;150;52.352;14.058;2023-04-01T03:40:50;3.72;;;2.75;;
325;SDS011;150;52.352;14.058;2023-04-01T03:43:17;4.30;;;2.97;;
325;SDS011;150;52.352;14.058;2023-04-01T03:45:44;4.20;;;3.13;;
325;SDS011;150;52.352;14.058;2023-04-01T03:48:11;3.00;;;2.22;;
325;SDS011;150;52.352;14.058;2023-04-01T03:50:38;3.50;;;2.58;;
325;SDS011;150;52.352;14.058;2023-04-01T03:53:06;2.75;;;2.22;;
325;SDS011;150;52.352;14.058;2023-04-01T03:55:32;3.40;;;2.75;;
325;SDS011;150;52.352;14.058;2023-04-01T03:57:59;3.70;;;2.50;;
325;SDS011;150;52.352;14.058;2023-04-01T04:00:27;4.90;;;3.05;;
325;SDS011;150;52.352;14.058;2023-04-01T04:02:54;2.80;;;2.50;;
325;SDS011;150;52.352;14.058;2023-04-01T04:05:21;3.85;;;2.88;;
325;SDS011;150;52.352;14.058;2023-04-01T04:07:48;4.15;;;2.50;;
325;SDS011;150;52.352;14.058;2023-04-01T04:10:16;3.67;;;2.97;;
325;SDS011;150;52.352;14.058;2023-04-01T04:12:43;3.33;;;2.45;;
325;SDS011;150;52.352;14.058;2023-04-01T04:15:10;4.13;;;2.83;;
325;SDS011;150;52.352;14.058;2023-04-01T04:17:37;3.20;;;2.50;;
325;SDS011;150;52.352;14.058;2023-04-01T04:20:05;3.50;;;2.60;;
325;SDS011;150;52.352;14.058;2023-04-01T04:22:32;4.18;;;3.08;;
325;SDS011;150;52.352;14.058;2023-04-01T04:24:59;4.55;;;2.70;;
325;SDS011;150;52.352;14.058;2023-04-01T04:27:27;4.40;;;3.00;;
325;SDS011;150;52.352;14.058;2023-04-01T04:29:53;4.67;;;2.60;;
325;SDS011;150;52.352;14.058;2023-04-01T04:32:20;7.20;;;5.70;;
325;SDS011;150;52.352;14.058;2023-04-01T04:34:47;5.80;;;4.70;;
325;SDS011;150;52.352;14.058;2023-04-01T04:37:13;5.93;;;4.60;;
325;SDS011;150;52.352;14.058;2023-04-01T04:39:40;4.50;;;3.17;;
325;SDS011;150;52.352;14.058;2023-04-01T04:42:07;4.05;;;2.97;;
325;SDS011;150;52.352;14.058;2023-04-01T04:44:35;4.20;;;3.28;;
325;SDS011;150;52.352;14.058;2023-04-01T04:47:02;5.07;;;2.80;;
325;SDS011;150;52.352;14.058;2023-04-01T04:49:28;5.43;;;3.53;;
325;SDS011;150;52.352;14.058;2023-04-01T04:51:55;3.80;;;2.83;;
325;SDS011;150;52.352;14.058;2023-04-01T04:54:22;5.50;;;3.20;;
325;SDS011;150;52.352;14.058;2023-04-01T04:56:50;5.67;;;3.20;;
325;SDS011;150;52.352;14.058;2023-04-01T04:59:17;3.90;;;3.00;;
325;SDS011;150;52.352;14.058;2023-04-01T05:01:45;5.35;;;2.90;;
325;SDS011;150;52.352;14.058;2023-04-01T05:04:12;5.07;;;3.10;;
325;SDS011;150;52.352;14.058;2023-04-01T05:06:39;4.05;;;2.78;;
325;SDS011;150;52.352;14.058;2023-04-01T05:09:05;4.72;;;2.80;;
325;SDS011;150;52.352;14.058;2023-04-01T05:11:32;4.32;;;3.03;;
325;SDS011;150;52.352;14.058;2023-04-01T05:13:58;3.40;;;2.80;;
325;SDS011;150;52.352;14.058;2023-04-01T05:16:25;3.53;;;2.72;;
325;SDS011;150;52.352;14.058;2023-04-01T05:18:53;6.30;;;3.38;;
325;SDS011;150;52.352;14.058;2023-04-01T05:21:20;4.57;;;3.28;;
325;SDS011;150;52.352;14.058;2023-04-01T05:23:46;4.75;;;3.00;;
325;SDS011;150;52.352;14.058;2023-04-01T05:26:14;5.72;;;3.30;;
325;SDS011;150;52.352;14.058;2023-04-01T05:28:41;5.40;;;3.60;;
325;SDS011;150;52.352;14.058;2023-04-01T05:31:07;4.38;;;3.67;;
325;SDS011;150;52.352;14.058;2023-04-01T05:33:34;4.60;;;3.95;;
325;SDS011;150;52.352;14.058;2023-04-01T05:36:09;11.55;;;4.07;;
325;SDS011;150;52.352;14.058;2023-04-01T05:38:37;6.45;;;3.50;;
325;SDS011;150;52.352;14.058;2023-04-01T05:41:04;5.80;;;3.85;;
325;SDS011;150;52.352;14.058;2023-04-01T05:43:31;5.20;;;3.53;;
325;SDS011;150;52.352;14.058;2023-04-01T05:45:57;4.97;;;3.50;;
325;SDS011;150;52.352;14.058;2023-04-01T05:48:24;6.30;;;3.30;;
325;SDS011;150;52.352;14.058;2023-04-01T05:50:51;4.90;;;3.35;;
325;SDS011;150;52.352;14.058;2023-04-01T05:53:19;3.85;;;2.60;;
325;SDS011;150;52.352;14.058;2023-04-01T05:55:45;5.32;;;3.80;;
325;SDS011;150;52.352;14.058;2023-04-01T05:58:12;4.97;;;3.20;;
325;SDS011;150;52.352;14.058;2023-04-01T06:00:39;4.22;;;2.92;;
325;SDS011;150;52.352;14.058;2023-04-01T06:03:06;4.93;;;3.67;;
325;SDS011;150;52.352;14.058;2023-04-01T06:05:36;4.70;;;3.60;;
325;SDS011;150;52.352;14.058;2023-04-01T06:08:06;6.03;;;4.10;;
325;SDS011;150;52.352;14.058;2023-04-01T06:10:40;7.45;;;3.90;;
325;SDS011;150;52.352;14.058;2023-04-01T06:13:19;5.82;;;4.05;;
325;SDS011;150;52.352;14.058;2023-04-01T06:15:57;7.15;;;4.90;;
325;SDS011;150;52.352;14.058;2023-04-01T06:18:37;6.78;;;4.18;;
325;SDS011;150;52.352;14.058;2023-04-01T06:24:12;4.93;;;3.60;;
325;SDS011;150;52.352;14.058;2023-04-01T06:26:55;6.07;;;4.00;;
325;SDS011;150;52.352;14.058;2023-04-01T06:29:42;8.35;;;4.70;;
325;SDS011;150;52.352;14.058;2023-04-01T06:32:20;7.10;;;4.00;;
325;SDS011;150;52.352;14.058;2023-04-01T06:35:11;6.45;;;4.88;;
325;SDS011;150;52.352;14.058;2023-04-01T06:37:55;7.30;;;4.85;;
325;SDS011;150;52.352;14.058;2023-04-01T06:40:36;9.32;;;6.07;;
325;SDS011;150;52.352;14.058;2023-04-01T06:43:24;7.10;;;5.40;;
325;SDS011;150;52.352;14.058;2023-04-01T06:46:01;6.53;;;4.65;;
325;SDS011;150;52.352;14.058;2023-04-01T06:48:38;5.07;;;3.70;;
325;SDS011;150;52.352;14.058;2023-04-01T06:51:17;7.82;;;4.20;;
325;SDS011;150;52.352;14.058;2023-04-01T06:53:54;6.63;;;4.03;;
325;SDS011;150;52.352;14.058;2023-04-01T06:56:27;8.48;;;5.95;;
325;SDS011;150;52.352;14.058;2023-04-01T06:58:57;7.50;;;4.70;;
325;SDS011;150;52.352;14.058;2023-04-01T07:01:27;8.60;;;6.53;;
325;SDS011;150;52.352;14.058;2023-04-01T07:03:59;6.70;;;4.15;;
325;SDS011;150;52.352;14.058;2023-04-01T07:06:30;4.90;;;3.63;;
325;SDS011;150;52.352;14.058;2023-04-01T07:09:02;6.30;;;4.60;;
325;SDS011;150;52.352;14.058;2023-04-01T07:11:35;3.67;;;3.10;;
325;SDS011;150;52.352;14.058;2023-04-01T07:14:06;8.02;;;5.43;;
325;SDS011;150;52.352;14.058;2023-04-01T07:16:43;8.13;;;5.60;;
325;SDS011;150;52.352;14.058;2023-04-01T07:19:14;7.18;;;4.40;;
325;SDS011;150;52.352;14.058;2023-04-01T07:21:47;10.05;;;7.25;;
325;SDS011;150;52.352;14.058;2023-04-01T07:24:16;7.28;;;5.13;;
325;SDS011;150;52.352;14.058;2023-04-01T07:26:52;13.75;;;7.72;;
325;SDS011;150;52.352;14.058;2023-04-01T07:29:22;6.47;;;4.70;;
325;SDS011;150;52.352;14.058;2023-04-01T07:32:03;5.75;;;3.97;;
325;SDS011;150;52.352;14.058;2023-04-01T07:34:49;5.70;;;4.20;;
325;SDS011;150;52.352;14.058;2023-04-01T07:37:22;7.23;;;3.60;;
325;SDS011;150;52.352;14.058;2023-04-01T07:39:55;5.00;;;3.83;;
325;SDS011;150;52.352;14.058;2023-04-01T07:42:31;11.90;;;3.70;;
325;SDS011;150;52.352;14.058;2023-04-01T07:45:11;3.47;;;2.70;;
325;SDS011;150;52.352;14.058;2023-04-01T07:47:49;5.50;;;3.20;;
325;SDS011;150;52.352;14.058;2023-04-01T07:50:28;3.33;;;2.33;;
325;SDS011;150;52.352;14.058;2023-04-01T07:53:00;3.33;;;2.35;;
325;SDS011;150;52.352;14.058;2023-04-01T07:55:35;4.32;;;2.72;;
325;SDS011;150;52.352;14.058;2023-04-01T07:58:09;12.07;;;9.25;;
325;SDS011;150;52.352;14.058;2023-04-01T08:00:47;5.25;;;3.55;;
325;SDS011;150;52.352;14.058;2023-04-01T08:03:23;4.50;;;2.65;;
325;SDS011;150;52.352;14.058;2023-04-01T08:06:00;6.63;;;3.40;;
325;SDS011;150;52.352;14.058;2023-04-01T08:08:37;2.88;;;2.08;;
325;SDS011;150;52.352;14.058;2023-04-01T08:11:21;6.70;;;4.75;;
325;SDS011;150;52.352;14.058;2023-04-01T08:13:58;7.47;;;5.95;;
325;SDS011;150;52.352;14.058;2023-04-01T08:16:34;5.00;;;3.80;;
325;SDS011;150;52.352;14.058;2023-04-01T08:19:15;4.05;;;3.28;;
325;SDS011;150;52.352;14.058;2023-04-01T08:22:25;2.85;;;1.88;;
325;SDS011;150;52.352;14.058;2023-04-01T08:25:10;5.80;;;4.00;;
325;SDS011;150;52.352;14.058;2023-04-01T08:28:19;3.70;;;2.80;;
325;SDS011;150;52.352;14.058;2023-04-01T08:31:02;2.50;;;2.10;;
325;SDS011;150;52.352;14.058;2023-04-01T08:34:02;4.40;;;2.30;;
325;SDS011;150;52.352;14.058;2023-04-01T08:36:41;3.23;;;2.30;;
325;SDS011;150;52.352;14.058;2023-04-01T08:39:36;3.30;;;2.10;;
325;SDS011;150;52.352;14.058;2023-04-01T08:45:21;2.47;;;2.20;;
325;SDS011;150;52.352;14.058;2023-04-01T08:48:08;2.35;;;2.08;;
325;SDS011;150;52.352;14.058;2023-04-01T08:51:27;2.85;;;1.70;;
325;SDS011;150;52.352;14.058;2023-04-01T08:57:44;3.08;;;2.60;;
325;SDS011;150;52.352;14.058;2023-04-01T09:00:42;2.20;;;1.40;;
325;SDS011;150;52.352;14.058;2023-04-01T09:09:23;7.33;;;4.60;;
325;SDS011;150;52.352;14.058;2023-04-01T09:15:19;3.90;;;2.78;;
325;SDS011;150;52.352;14.058;2023-04-01T09:18:05;5.05;;;3.80;;
325;SDS011;150;52.352;14.058;2023-04-01T09:20:58;4.15;;;3.15;;
325;SDS011;150;52.352;14.058;2023-04-01T09:24:10;3.60;;;2.60;;
325;SDS011;150;52.352;14.058;2023-04-01T09:27:03;3.53;;;3.10;;
325;SDS011;150;52.352;14.058;2023-04-01T09:29:37;4.30;;;3.30;;
325;SDS011;150;52.352;14.058;2023-04-01T09:32:36;3.80;;;3.05;;
325;SDS011;150;52.352;14.058;2023-04-01T09:35:20;11.13;;;7.13;;
325;SDS011;150;52.352;14.058;2023-04-01T09:38:09;6.60;;;4.75;;
325;SDS011;150;52.352;14.058;2023-04-01T09:40:47;5.43;;;4.22;;
325;SDS011;150;52.352;14.058;2023-04-01T09:43:22;4.73;;;3.00;;
325;SDS011;150;52.352;14.058;2023-04-01T09:45:55;3.90;;;2.53;;
325;SDS011;150;52.352;14.058;2023-04-01T09:51:34;3.10;;;2.45;;
325;SDS011;150;52.352;14.058;2023-04-01T09:54:22;4.43;;;3.10;;
325;SDS011;150;52.352;14.058;2023-04-01T09:57:02;3.13;;;2.43;;
325;SDS011;150;52.352;14.058;2023-04-01T10:09:28;6.10;;;4.13;;
325;SDS011;150;52.352;14.058;2023-04-01T10:12:41;4.65;;;3.97;;
325;SDS011;150;52.352;14.058;2023-04-01T10:15:51;5.10;;;3.60;;
325;SDS011;150;52.352;14.058;2023-04-01T10:18:47;5.50;;;4.30;;
325;SDS011;150;52.352;14.058;2023-04-01T10:24:43;6.35;;;4.80;;
325;SDS011;150;52.352;14.058;2023-04-01T10:27:32;9.00;;;6.00;;
325;SDS011;150;52.352;14.058;2023-04-01T10:36:05;5.90;;;5.20;;
325;SDS011;150;52.352;14.058;2023-04-01T10:48:10;4.32;;;4.05;;
325;SDS011;150;52.352;14.058;2023-04-01T10:50:53;5.97;;;4.55;;
325;SDS011;150;52.352;14.058;2023-04-01T10:53:38;6.18;;;4.90;;
325;SDS011;150;52.352;14.058;2023-04-01T11:05:14;4.57;;;3.60;;
325;SDS011;150;52.352;14.058;2023-04-01T11:08:04;4.55;;;4.00;;
325;SDS011;150;52.352;14.058;2023-04-01T11:11:18;6.43;;;4.90;;
325;SDS011;150;52.352;14.058;2023-04-01T11:14:12;7.55;;;5.63;;
325;SDS011;150;52.352;14.058;2023-04-01T11:17:09;10.18;;;7.30;;
325;SDS011;150;52.352;14.058;2023-04-01T11:20:07;9.38;;;7.97;;
325;SDS011;150;52.352;14.058;2023-04-01T11:23:02;7.35;;;5.00;;
325;SDS011;150;52.352;14.058;2023-04-01T11:25:49;5.97;;;4.70;;
325;SDS011;150;52.352;14.058;2023-04-01T11:28:47;5.18;;;4.32;;
325;SDS011;150;52.352;14.058;2023-04-01T11:31:29;4.93;;;4.30;;
325;SDS011;150;52.352;14.058;2023-04-01T11:34:19;3.90;;;3.15;;
325;SDS011;150;52.352;14.058;2023-04-01T11:36:57;5.20;;;3.78;;
325;SDS011;150;52.352;14.058;2023-04-01T11:39:33;3.95;;;3.50;;
325;SDS011;150;52.352;14.058;2023-04-01T11:42:11;3.78;;;3.50;;
325;SDS011;150;52.352;14.058;2023-04-01T11:44:48;5.47;;;4.60;;
325;SDS011;150;52.352;14.058;2023-04-01T11:47:22;11.48;;;8.30;;
325;SDS011;150;52.352;14.058;2023-04-01T11:50:09;5.05;;;4.70;;
325;SDS011;150;52.352;14.058;2023-04-01T11:52:53;4.68;;;4.40;;
325;SDS011;150;52.352;14.058;2023-04-01T11:55:32;6.53;;;4.17;;
325;SDS011;150;52.352;14.058;2023-04-01T12:06:44;6.97;;;4.45;;
325;SDS011;150;52.352;14.058;2023-04-01T12:09:20;6.20;;;4.32;;
325;SDS011;150;52.352;14.058;2023-04-01T12:11:57;4.30;;;4.00;;
325;SDS011;150;52.352;14.058;2023-04-01T12:14:39;4.25;;;3.67;;
325;SDS011;150;52.352;14.058;2023-04-01T12:17:13;4.35;;;3.05;;
325;SDS011;150;52.352;14.058;2023-04-01T12:19:53;3.78;;;3.17;;
325;SDS011;150;52.352;14.058;2023-04-01T12:22:30;3.60;;;3.28;;
325;SDS011;150;52.352;14.058;2023-04-01T12:25:14;6.50;;;4.60;;
325;SDS011;150;52.352;14.058;2023-04-01T12:27:53;5.35;;;4.97;;
325;SDS011;150;52.352;14.058;2023-04-01T12:30:46;6.72;;;5.80;;
325;SDS011;150;52.352;14.058;2023-04-01T12:33:41;6.50;;;6.10;;
325;SDS011;150;52.352;14.058;2023-04-01T12:36:18;4.78;;;4.47;;
325;SDS011;150;52.352;14.058;2023-04-01T12:39:08;4.40;;;4.10;;
325;SDS011;150;52.352;14.058;2023-04-01T12:41:49;5.60;;;5.30;;
325;SDS011;150;52.352;14.058;2023-04-01T12:44:33;5.70;;;4.57;;
325;SDS011;150;52.352;14.058;2023-04-01T12:47:14;5.53;;;5.10;;
325;SDS011;150;52.352;14.058;2023-04-01T12:53:05;5.70;;;5.07;;
325;SDS011;150;52.352;14.058;2023-04-01T12:55:44;5.10;;;4.55;;
325;SDS011;150;52.352;14.058;2023-04-01T13:07:31;5.47;;;5.20;;
325;SDS011;150;52.352;14.058;2023-04-01T13:10:10;4.40;;;3.65;;
325;SDS011;150;52.352;14.058;2023-04-01T13:12:58;3.90;;;3.28;;
325;SDS011;150;52.352;14.058;2023-04-01T13:15:36;3.08;;;2.63;;
325;SDS011;150;52.352;14.058;2023-04-01T13:18:14;5.28;;;4.47;;
325;SDS011;150;52.352;14.058;2023-04-01T13:20:49;3.60;;;3.45;;
325;SDS011;150;52.352;14.058;2023-04-01T13:23:31;3.65;;;3.15;;
325;SDS011;150;52.352;14.058;2023-04-01T13:26:09;4.20;;;3.75;;
325;SDS011;150;52.352;14.058;2023-04-01T13:28:45;5.32;;;4.10;;
325;SDS011;150;52.352;14.058;2023-04-01T13:31:22;5.40;;;4.90;;
325;SDS011;150;52.352;14.058;2023-04-01T13:33:57;7.57;;;5.93;;
325;SDS011;150;52.352;14.058;2023-04-01T13:36:34;5.55;;;5.22;;
325;SDS011;150;52.352;14.058;2023-04-01T13:39:12;6.90;;;5.30;;
325;SDS011;150;52.352;14.058;2023-04-01T13:41:53;5.35;;;5.10;;
325;SDS011;150;52.352;14.058;2023-04-01T13:44:29;6.53;;;4.53;;
325;SDS011;150;52.352;14.058;2023-04-01T13:47:07;4.80;;;4.47;;
325;SDS011;150;52.352;14.058;2023-04-01T13:49:57;6.53;;;4.82;;
325;SDS011;150;52.352;14.058;2023-04-01T13:52:41;5.40;;;4.30;;
325;SDS011;150;52.352;14.058;2023-04-01T13:55:24;5.20;;;3.90;;
325;SDS011;150;52.352;14.058;2023-04-01T13:58:12;5.70;;;4.20;;
325;SDS011;150;52.352;14.058;2023-04-01T14:00:55;5.28;;;4.00;;
325;SDS011;150;52.352;14.058;2023-04-01T14:03:42;5.47;;;3.65;;
325;SDS011;150;52.352;14.058;2023-04-01T14:06:20;3.97;;;3.42;;
325;SDS011;150;52.352;14.058;2023-04-01T14:09:02;5.53;;;3.65;;
325;SDS011;150;52.352;14.058;2023-04-01T14:12:09;4.57;;;3.72;;
325;SDS011;150;52.352;14.058;2023-04-01T14:14:46;4.72;;;4.30;;
325;SDS011;150;52.352;14.058;2023-04-01T14:17:30;4.72;;;4.20;;
325;SDS011;150;52.352;14.058;2023-04-01T14:20:22;4.32;;;3.17;;
325;SDS011;150;52.352;14.058;2023-04-01T14:23:03;4.18;;;3.25;;
325;SDS011;150;52.352;14.058;2023-04-01T14:28:53;5.53;;;3.53;;
325;SDS011;150;52.352;14.058;2023-04-01T14:31:38;5.63;;;3.80;;
325;SDS011;150;52.352;14.058;2023-04-01T14:34:21;5.65;;;3.97;;
325;SDS011;150;52.352;14.058;2023-04-01T14:36:56;4.40;;;3.23;;
325;SDS011;150;52.352;14.058;2023-04-01T14:39:43;4.63;;;3.90;;
325;SDS011;150;52.352;14.058;2023-04-01T14:42:34;5.35;;;4.13;;
325;SDS011;150;52.352;14.058;2023-04-01T14:45:22;4.22;;;3.42;;
325;SDS011;150;52.352;14.058;2023-04-01T14:47:56;3.90;;;3.40;;
325;SDS011;150;52.352;14.058;2023-04-01T14:50:40;5.80;;;4.55;;
325;SDS011;150;52.352;14.058;2023-04-01T14:53:11;3.35;;;3.22;;
325;SDS011;150;52.352;14.058;2023-04-01T14:55:52;4.78;;;4.25;;
325;SDS011;150;52.352;14.058;2023-04-01T14:58:21;4.95;;;3.47;;
325;SDS011;150;52.352;14.058;2023-04-01T15:01:08;3.60;;;3.00;;
325;SDS011;150;52.352;14.058;2023-04-01T15:03:56;4.70;;;3.10;;
325;SDS011;150;52.352;14.058;2023-04-01T15:06:47;5.53;;;4.25;;
325;SDS011;150;52.352;14.058;2023-04-01T15:09:28;6.38;;;5.00;;
325;SDS011;150;52.352;14.058;2023-04-01T15:12:07;5.90;;;4.43;;
325;SDS011;150;52.352;14.058;2023-04-01T15:14:46;2.80;;;2.30;;
325;SDS011;150;52.352;14.058;2023-04-01T15:17:33;2.47;;;2.00;;
325;SDS011;150;52.352;14.058;2023-04-01T15:20:15;3.58;;;2.22;;
325;SDS011;150;52.352;14.058;2023-04-01T15:25:51;2.70;;;2.20;;
325;SDS011;150;52.352;14.058;2023-04-01T15:28:45;3.33;;;3.03;;
325;SDS011;150;52.352;14.058;2023-04-01T15:31:26;2.80;;;2.60;;
325;SDS011;150;52.352;14.058;2023-04-01T15:34:05;2.27;;;1.90;;
325;SDS011;150;52.352;14.058;2023-04-01T15:36:50;3.28;;;2.10;;
325;SDS011;150;52.352;14.058;2023-04-01T15:39:24;3.70;;;2.60;;
325;SDS011;150;52.352;14.058;2023-04-01T15:42:13;4.03;;;3.28;;
325;SDS011;150;52.352;14.058;2023-04-01T15:44:57;4.70;;;2.80;;
325;SDS011;150;52.352;14.058;2023-04-01T15:47:37;6.68;;;5.22;;
325;SDS011;150;52.352;14.058;2023-04-01T15:50:28;4.60;;;4.30;;
325;SDS011;150;52.352;14.058;2023-04-01T15:56:16;3.28;;;3.17;;
325;SDS011;150;52.352;14.058;2023-04-01T15:59:16;3.63;;;3.17;;
325;SDS011;150;52.352;14.058;2023-04-01T16:02:10;4.45;;;3.45;;
325;SDS011;150;52.352;14.058;2023-04-01T16:04:48;4.57;;;4.00;;
325;SDS011;150;52.352;14.058;2023-04-01T16:10:38;4.10;;;3.50;;
325;SDS011;150;52.352;14.058;2023-04-01T16:13:23;6.97;;;5.40;;
325;SDS011;150;52.352;14.058;2023-04-01T16:15:59;7.50;;;5.70;;
325;SDS011;150;52.352;14.058;2023-04-01T16:18:48;8.05;;;5.82;;
325;SDS011;150;52.352;14.058;2023-04-01T16:21:28;4.40;;;3.80;;
325;SDS011;150;52.352;14.058;2023-04-01T16:24:09;4.72;;;4.13;;
325;SDS011;150;52.352;14.058;2023-04-01T16:26:43;6.72;;;5.57;;
325;SDS011;150;52.352;14.058;2023-04-01T16:29:19;4.50;;;4.10;;
325;SDS011;150;52.352;14.058;2023-04-01T16:31:58;4.00;;;3.83;;
325;SDS011;150;52.352;14.058;2023-04-01T16:34:36;5.00;;;3.90;;
325;SDS011;150;52.352;14.058;2023-04-01T16:37:07;5.15;;;3.63;;
325;SDS011;150;52.352;14.058;2023-04-01T16:39:43;3.90;;;3.10;;
325;SDS011;150;52.352;14.058;2023-04-01T16:42:31;5.07;;;3.77;;
325;SDS011;150;52.352;14.058;2023-04-01T16:47:55;6.00;;;4.93;;
325;SDS011;150;52.352;14.058;2023-04-01T16:50:27;4.75;;;4.30;;
325;SDS011;150;52.352;14.058;2023-04-01T16:53:14;5.47;;;4.70;;
325;SDS011;150;52.352;14.058;2023-04-01T16:55:55;4.77;;;3.97;;
325;SDS011;150;52.352;14.058;2023-04-01T16:58:33;5.00;;;4.80;;
325;SDS011;150;52.352;14.058;2023-04-01T17:01:01;3.75;;;3.55;;
325;SDS011;150;52.352;14.058;2023-04-01T17:03:35;4.45;;;4.15;;
325;SDS011;150;52.352;14.058;2023-04-01T17:06:16;5.20;;;4.90;;
325;SDS011;150;52.352;14.058;2023-04-01T17:08:58;4.00;;;3.80;;
325;SDS011;150;52.352;14.058;2023-04-01T17:11:54;5.63;;;4.15;;
325;SDS011;150;52.352;14.058;2023-04-01T17:14:31;4.25;;;3.97;;
325;SDS011;150;52.352;14.058;2023-04-01T17:17:13;4.00;;;3.80;;
325;SDS011;150;52.352;14.058;2023-04-01T17:19:49;4.82;;;3.95;;
325;SDS011;150;52.352;14.058;2023-04-01T17:22:44;5.72;;;5.10;;
325;SDS011;150;52.352;14.058;2023-04-01T17:25:35;7.45;;;5.40;;
325;SDS011;150;52.352;14.058;2023-04-01T17:28:23;5.03;;;4.20;;
325;SDS011;150;52.352;14.058;2023-04-01T17:31:02;4.97;;;4.38;;
325;SDS011;150;52.352;14.058;2023-04-01T17:33:48;6.22;;;4.55;;
325;SDS011;150;52.352;14.058;2023-04-01T17:36:38;3.83;;;3.63;;
325;SDS011;150;52.352;14.058;2023-04-01T17:39:21;3.85;;;3.72;;
325;SDS011;150;52.352;14.058;2023-04-01T17:42:00;6.70;;;4.70;;
325;SDS011;150;52.352;14.058;2023-04-01T17:44:43;4.43;;;3.70;;
325;SDS011;150;52.352;14.058;2023-04-01T17:47:23;4.05;;;3.90;;
325;SDS011;150;52.352;14.058;2023-04-01T17:50:20;6.10;;;4.60;;
325;SDS011;150;52.352;14.058;2023-04-01T17:53:03;5.15;;;4.90;;
325;SDS011;150;52.352;14.058;2023-04-01T17:55:43;5.20;;;4.90;;
325;SDS011;150;52.352;14.058;2023-04-01T17:58:18;11.37;;;7.53;;
325;SDS011;150;52.352;14.058;2023-04-01T18:07:26;4.28;;;3.50;;
325;SDS011;150;52.352;14.058;2023-04-01T18:10:22;4.95;;;4.15;;
325;SDS011;150;52.352;14.058;2023-04-01T18:13:08;4.00;;;3.30;;
325;SDS011;150;52.352;14.058;2023-04-01T18:15:59;5.30;;;4.07;;
325;SDS011;150;52.352;14.058;2023-04-01T18:18:48;3.83;;;3.13;;
325;SDS011;150;52.352;14.058;2023-04-01T18:21:32;4.50;;;3.50;;
325;SDS011;150;52.352;14.058;2023-04-01T18:24:14;3.78;;;3.58;;
325;SDS011;150;52.352;14.058;2023-04-01T18:27:02;4.97;;;3.88;;
325;SDS011;150;52.352;14.058;2023-04-01T18:29:53;5.10;;;3.83;;
325;SDS011;150;52.352;14.058;2023-04-01T18:32:32;4.00;;;3.70;;
325;SDS011;150;52.352;14.058;2023-04-01T18:35:16;4.53;;;3.35;;
325;SDS011;150;52.352;14.058;2023-04-01T18:38:04;4.20;;;3.70;;
325;SDS011;150;52.352;14.058;2023-04-01T18:40:48;4.40;;;3.47;;
325;SDS011;150;52.352;14.058;2023-04-01T18:43:31;3.95;;;3.65;;
325;SDS011;150;52.352;14.058;2023-04-01T18:46:09;4.30;;;3.25;;
325;SDS011;150;52.352;14.058;2023-04-01T18:48:47;5.57;;;4.13;;
325;SDS011;150;52.352;14.058;2023-04-01T18:51:26;5.60;;;4.30;;